SBPL/PNZ METAR and TAF weather

Enter ICAO airport designator
Station Type Date Time Source
SBPL METAR 2020/11/27 15:00 UTC NOAA

SBPL 271500Z 15012KT 9999 BKN025 SCT070 27/21 Q1015


Station Type Date Time Source
SBPL Decoded METAR 2020/11/27 15:00 UTC NOAA

Petrolina , Brazil (SBPL) 09-21S 040-33W
Nov 27, 2020 - 10:00 AM EST / 2020.11.27 1500 UTC
Wind: from the SSE (150 degrees) at 14 MPH (12 KT):0
Visibility: greater than 7 mile(s):0
Sky conditions: mostly cloudy
Temperature: 80 F (27 C)
Dew Point: 69 F (21 C)
Relative Humidity: 69%
Pressure (altimeter): 29.97 in. Hg (1015 hPa)
ob: SBPL 271500Z 15012KT 9999 BKN025 SCT070 27/21 Q1015
cycle: 15

Station Type Date Time Source
SBPL TAF 2020/11/27 12:59 UTC NOAA

TAF SBPL 270900Z 2712/2812 15010KT 9999 BKN025 TX31/2718Z TN23/2809Z
BECMG 2715/2717 13012KT SCT025 FEW030TCU
BECMG 2718/2720 18008KT SCT030
BECMG 2803/2805 15010KT FEW040
BECMG 2810/2812 SCT025
RMK PFV

Example: see airport list